createdAt,value
2022-12-03T00:00:13.637Z,95.36
2022-12-03T00:01:13.409Z,95.36
2022-12-03T00:02:13.524Z,95.57
2022-12-03T00:03:13.465Z,95.67
2022-12-03T00:04:13.259Z,95.57
2022-12-03T00:05:13.215Z,96.20
2022-12-03T00:06:13.175Z,95.78
2022-12-03T00:07:13.138Z,94.84
2022-12-03T00:08:13.171Z,96.09
2022-12-03T00:09:13.031Z,95.89
2022-12-03T00:10:12.988Z,95.26
2022-12-03T00:11:12.938Z,95.89
2022-12-03T00:12:12.919Z,95.99
2022-12-03T00:13:12.852Z,95.36
2022-12-03T00:14:12.806Z,95.99
2022-12-03T00:15:12.754Z,95.36
2022-12-03T00:16:12.742Z,95.93
2022-12-03T00:17:12.662Z,96.30
2022-12-03T00:18:12.634Z,95.67
2022-12-03T00:19:12.577Z,95.89
2022-12-03T00:20:12.547Z,95.67
2022-12-03T00:21:12.482Z,95.89
2022-12-03T00:22:12.929Z,96.72
2022-12-03T00:23:12.388Z,96.51
2022-12-03T00:24:12.344Z,95.99
2022-12-03T00:25:12.299Z,96.61
2022-12-03T00:26:12.269Z,95.99
2022-12-03T00:27:12.214Z,96.92
2022-12-03T00:28:12.173Z,95.99
2022-12-03T00:29:12.116Z,96.30
2022-12-03T00:30:12.076Z,96.09
2022-12-03T00:31:12.077Z,96.20
2022-12-03T00:32:11.998Z,96.82
2022-12-03T00:33:11.931Z,95.99
2022-12-03T00:34:11.888Z,95.57
2022-12-03T00:35:11.841Z,96.20
2022-12-03T00:36:11.799Z,95.89
2022-12-03T00:37:11.752Z,96.30
2022-12-03T00:38:11.732Z,96.09
2022-12-03T00:39:11.661Z,96.30
2022-12-03T00:40:11.625Z,96.09
2022-12-03T00:41:11.575Z,96.51
2022-12-03T00:42:11.529Z,95.57
2022-12-03T00:43:11.479Z,95.26
2022-12-03T00:44:11.441Z,96.30
2022-12-03T00:45:11.385Z,96.09
2022-12-03T00:46:11.428Z,96.09
2022-12-03T00:47:11.356Z,96.36
2022-12-03T00:48:11.244Z,95.67
2022-12-03T00:49:11.222Z,95.42
2022-12-03T00:50:11.156Z,95.78
2022-12-03T00:51:11.112Z,95.36
2022-12-03T00:52:11.065Z,95.99
2022-12-03T00:53:11.023Z,95.99
2022-12-03T00:54:10.974Z,96.30
2022-12-03T00:55:10.944Z,95.99
2022-12-03T00:56:10.885Z,96.20
2022-12-03T00:57:10.846Z,95.99
2022-12-03T00:58:10.787Z,96.20
2022-12-03T00:59:10.752Z,97.03
2022-12-03T01:00:10.705Z,96.25
2022-12-03T01:01:10.669Z,96.72
2022-12-03T01:02:10.689Z,96.20
2022-12-03T01:03:10.568Z,96.51
2022-12-03T01:04:10.534Z,96.20
2022-12-03T01:05:10.562Z,96.72
2022-12-03T01:06:10.425Z,96.61
2022-12-03T01:07:10.395Z,96.51
2022-12-03T01:08:10.381Z,96.92
2022-12-03T01:09:10.291Z,96.78
2022-12-03T01:10:10.242Z,96.09
2022-12-03T01:11:10.209Z,96.20
2022-12-03T01:12:10.152Z,96.09
2022-12-03T01:13:10.126Z,96.51
2022-12-03T01:14:10.074Z,97.13
2022-12-03T01:15:10.021Z,97.96
2022-12-03T01:16:10.007Z,95.84
2022-12-03T01:17:09.926Z,96.09
2022-12-03T01:18:09.878Z,96.67
2022-12-03T01:19:09.835Z,97.24
2022-12-03T01:20:09.826Z,96.61
2022-12-03T01:21:09.748Z,97.03
2022-12-03T01:22:09.697Z,96.30
2022-12-03T01:23:09.653Z,96.72
2022-12-03T01:24:09.606Z,96.09
2022-12-03T01:25:09.563Z,96.51
2022-12-03T01:26:09.527Z,96.51
2022-12-03T01:27:09.467Z,96.82
2022-12-03T01:28:09.421Z,96.82
2022-12-03T01:29:09.382Z,97.44
2022-12-03T01:30:09.331Z,97.03
2022-12-03T01:31:09.348Z,96.30
2022-12-03T01:32:09.243Z,96.36
2022-12-03T01:33:09.204Z,97.34
2022-12-03T01:34:09.151Z,96.51
2022-12-03T01:35:09.110Z,96.61
2022-12-03T01:36:09.057Z,97.13
2022-12-03T01:37:09.023Z,97.34
2022-12-03T01:38:08.968Z,96.51
2022-12-03T01:39:08.926Z,97.65
2022-12-03T01:40:08.875Z,97.65
2022-12-03T01:41:11.937Z,97.40
2022-12-03T01:42:08.786Z,96.88
2022-12-03T01:43:08.755Z,96.98
2022-12-03T01:44:17.949Z,96.36
2022-12-03T01:45:08.661Z,97.03
2022-12-03T01:46:08.637Z,96.98
2022-12-03T01:47:08.643Z,97.34
2022-12-03T01:48:08.544Z,97.09
2022-12-03T01:49:08.470Z,96.88
2022-12-03T01:50:08.421Z,96.47
2022-12-03T01:51:08.376Z,96.57
2022-12-03T01:52:08.331Z,96.41
2022-12-03T01:53:08.286Z,97.24
2022-12-03T01:54:08.250Z,97.13
2022-12-03T01:55:08.198Z,96.78
2022-12-03T01:56:08.160Z,97.09
2022-12-03T01:57:08.103Z,97.19
2022-12-03T01:58:08.057Z,96.41
2022-12-03T01:59:08.011Z,96.98
2022-12-03T02:00:07.967Z,97.03
2022-12-03T02:01:08.478Z,97.40
2022-12-03T02:02:08.510Z,97.24
2022-12-03T02:03:07.831Z,97.13
2022-12-03T02:04:07.852Z,96.72
2022-12-03T02:05:07.799Z,96.51
2022-12-03T02:06:07.696Z,96.41
2022-12-03T02:07:07.661Z,96.72
2022-12-03T02:08:08.085Z,97.13
2022-12-03T02:09:07.557Z,96.41
2022-12-03T02:10:07.514Z,97.03
2022-12-03T02:11:07.479Z,97.13
2022-12-03T02:12:07.421Z,96.92
2022-12-03T02:13:07.382Z,97.03
2022-12-03T02:14:07.331Z,97.44
2022-12-03T02:15:07.292Z,97.86
2022-12-03T02:16:07.278Z,97.65
2022-12-03T02:17:07.989Z,98.17
2022-12-03T02:18:08.227Z,97.13
2022-12-03T02:19:07.105Z,96.72
2022-12-03T02:20:07.057Z,96.20
2022-12-03T02:21:07.047Z,96.82
2022-12-03T02:22:06.964Z,97.24
2022-12-03T02:23:06.925Z,97.24
2022-12-03T02:24:06.880Z,97.34
2022-12-03T02:25:06.837Z,97.13
2022-12-03T02:26:06.802Z,97.13
2022-12-03T02:27:06.753Z,96.51
2022-12-03T02:28:06.689Z,97.34
2022-12-03T02:29:06.649Z,97.03
2022-12-03T02:30:06.602Z,97.24
2022-12-03T02:31:06.621Z,97.03
2022-12-03T02:32:06.508Z,96.51
2022-12-03T02:33:06.480Z,97.13
2022-12-03T02:34:06.416Z,97.13
2022-12-03T02:35:06.374Z,96.72
2022-12-03T02:36:06.400Z,97.65
2022-12-03T02:37:06.287Z,97.55
2022-12-03T02:38:06.237Z,97.24
2022-12-03T02:39:06.207Z,97.24
2022-12-03T02:40:06.147Z,97.34
2022-12-03T02:41:06.100Z,96.82
2022-12-03T02:42:06.054Z,97.55
2022-12-03T02:43:06.026Z,97.65
2022-12-03T02:44:05.961Z,97.86
2022-12-03T02:45:06.050Z,97.86
2022-12-03T02:46:06.466Z,98.07
2022-12-03T02:47:05.899Z,96.82
2022-12-03T02:48:05.900Z,97.34
2022-12-03T02:49:05.734Z,97.65
2022-12-03T02:50:05.695Z,97.19
2022-12-03T02:51:05.647Z,98.17
2022-12-03T02:52:05.597Z,98.07
2022-12-03T02:53:05.563Z,97.75
2022-12-03T02:54:05.520Z,97.13
2022-12-03T02:55:05.464Z,97.34
2022-12-03T02:56:05.414Z,97.55
2022-12-03T02:57:05.371Z,97.19
2022-12-03T02:58:05.327Z,97.65
2022-12-03T02:59:05.291Z,98.59
2022-12-03T03:00:05.233Z,97.40
2022-12-03T03:01:05.286Z,97.65
2022-12-03T03:02:05.169Z,98.17
2022-12-03T03:03:05.109Z,97.75
2022-12-03T03:04:05.066Z,97.86
2022-12-03T03:05:05.007Z,98.07
2022-12-03T03:06:04.958Z,97.55
2022-12-03T03:07:04.918Z,97.92
2022-12-03T03:08:04.905Z,97.24
2022-12-03T03:09:04.821Z,97.03
2022-12-03T03:10:04.797Z,98.13
2022-12-03T03:11:04.732Z,97.09
2022-12-03T03:12:04.688Z,96.92
2022-12-03T03:13:04.647Z,96.72
2022-12-03T03:14:04.595Z,97.03
2022-12-03T03:15:04.549Z,97.86
2022-12-03T03:16:04.587Z,98.27
2022-12-03T03:17:04.461Z,97.96
2022-12-03T03:18:04.415Z,97.75
2022-12-03T03:19:04.370Z,98.38
2022-12-03T03:20:04.323Z,97.96
2022-12-03T03:21:04.291Z,97.34
2022-12-03T03:22:04.231Z,98.27
2022-12-03T03:23:04.187Z,98.27
2022-12-03T03:24:04.139Z,98.27
2022-12-03T03:25:04.097Z,98.74
2022-12-03T03:26:04.048Z,99.32
2022-12-03T03:27:04.026Z,98.38
2022-12-03T03:28:03.956Z,97.86
2022-12-03T03:29:03.935Z,99.36
2022-12-03T03:30:03.869Z,98.38
2022-12-03T03:31:03.822Z,99.46
2022-12-03T03:32:03.869Z,99.46
2022-12-03T03:33:03.732Z,98.84
2022-12-03T03:34:03.683Z,99.11
2022-12-03T03:35:03.661Z,98.48
2022-12-03T03:36:03.596Z,99.52
2022-12-03T03:37:03.558Z,99.36
2022-12-03T03:38:03.507Z,99.52
2022-12-03T03:39:03.455Z,99.36
2022-12-03T03:40:03.417Z,98.22
2022-12-03T03:41:03.387Z,98.43
2022-12-03T03:42:03.318Z,98.74
2022-12-03T03:43:03.285Z,99.36
2022-12-03T03:44:03.228Z,99.32
2022-12-03T03:45:03.192Z,99.67
2022-12-03T03:46:03.203Z,99.99
2022-12-03T03:47:03.095Z,98.43
2022-12-03T03:48:03.041Z,98.32
2022-12-03T03:49:03.001Z,98.94
2022-12-03T03:50:02.952Z,99.99
2022-12-03T03:51:02.912Z,99.26
2022-12-03T03:52:02.885Z,99.99
2022-12-03T03:53:02.823Z,99.15
2022-12-03T03:54:02.776Z,99.67
2022-12-03T03:55:02.731Z,99.63
2022-12-03T03:56:02.679Z,99.77
2022-12-03T03:57:02.641Z,98.32
2022-12-03T03:58:02.600Z,98.43
2022-12-03T03:59:02.556Z,99.46
2022-12-03T04:00:02.503Z,99.67
2022-12-03T04:01:02.493Z,99.67
2022-12-03T04:02:02.420Z,99.77
2022-12-03T04:03:02.369Z,99.32
2022-12-03T04:04:02.364Z,99.46
2022-12-03T04:05:02.272Z,99.99
2022-12-03T04:06:02.247Z,98.63
2022-12-03T04:07:02.193Z,99.46
2022-12-03T04:08:02.227Z,97.49
2022-12-03T04:09:02.092Z,97.80
2022-12-03T04:10:02.040Z,98.22
2022-12-03T04:11:01.994Z,99.05
2022-12-03T04:12:01.957Z,98.43
2022-12-03T04:13:01.902Z,98.74
2022-12-03T04:14:01.856Z,99.05
2022-12-03T04:15:01.817Z,99.05
2022-12-03T04:16:01.766Z,98.22
2022-12-03T04:17:01.840Z,98.43
2022-12-03T04:18:01.717Z,98.32
2022-12-03T04:19:01.627Z,98.94
2022-12-03T04:20:01.591Z,99.26
2022-12-03T04:21:01.567Z,98.22
2022-12-03T04:22:01.493Z,99.46
2022-12-03T04:23:01.447Z,98.63
2022-12-03T04:24:01.438Z,98.94
2022-12-03T04:25:03.989Z,98.53
2022-12-03T04:26:01.307Z,98.53
2022-12-03T04:27:01.271Z,99.05
2022-12-03T04:28:01.214Z,98.22
2022-12-03T04:29:01.172Z,98.63
2022-12-03T04:30:03.036Z,98.43
2022-12-03T04:31:01.118Z,98.47
2022-12-03T04:32:01.037Z,98.36
2022-12-03T04:33:00.992Z,98.68
2022-12-03T04:34:00.946Z,98.47
2022-12-03T04:35:01.060Z,98.53
2022-12-03T04:36:00.898Z,99.30
2022-12-03T04:37:00.814Z,97.80
2022-12-03T04:38:00.761Z,98.22
2022-12-03T04:39:00.737Z,98.78
2022-12-03T04:40:00.669Z,98.16
2022-12-03T04:41:00.634Z,99.36
2022-12-03T04:42:00.584Z,98.32
2022-12-03T04:43:00.543Z,97.74
2022-12-03T04:44:00.483Z,98.26
2022-12-03T04:45:00.449Z,98.16
2022-12-03T04:46:00.452Z,98.47
2022-12-03T04:47:00.373Z,98.43
2022-12-03T04:48:00.294Z,97.64
2022-12-03T04:49:00.259Z,98.47
2022-12-03T04:50:00.204Z,98.47
2022-12-03T04:51:00.161Z,97.70
2022-12-03T04:52:00.115Z,97.85
2022-12-03T04:53:00.085Z,96.80
2022-12-03T04:54:00.025Z,97.80
2022-12-03T04:54:59.974Z,97.70
2022-12-03T04:56:00.491Z,98.68
2022-12-03T04:57:00.489Z,98.68
2022-12-03T04:57:59.851Z,97.38
2022-12-03T04:58:59.805Z,97.80
2022-12-03T04:59:59.749Z,98.63
2022-12-03T05:00:59.735Z,97.49
2022-12-03T05:02:02.558Z,98.01
2022-12-03T05:02:59.691Z,97.33
2022-12-03T05:04:00.418Z,97.38
2022-12-03T05:04:59.518Z,98.22
2022-12-03T05:05:59.493Z,96.86
2022-12-03T05:06:59.427Z,97.01
2022-12-03T05:07:59.453Z,97.85
2022-12-03T05:08:59.336Z,97.43
2022-12-03T05:10:01.018Z,97.12
2022-12-03T05:11:00.035Z,97.33
2022-12-03T05:11:59.219Z,97.43
2022-12-03T05:12:59.152Z,96.91
2022-12-03T05:13:59.115Z,96.97
2022-12-03T05:15:05.994Z,97.85
2022-12-03T05:15:59.018Z,97.43
2022-12-03T05:16:59.005Z,97.85
2022-12-03T05:18:01.501Z,98.16
2022-12-03T05:18:58.898Z,97.22
2022-12-03T05:19:58.834Z,97.01
2022-12-03T05:21:00.463Z,97.43
2022-12-03T05:22:01.504Z,96.28
2022-12-03T05:23:01.499Z,97.64
2022-12-03T05:23:58.650Z,96.59
2022-12-03T05:24:58.613Z,96.45
2022-12-03T05:26:00.500Z,96.76
2022-12-03T05:26:58.507Z,97.17
2022-12-03T05:27:58.463Z,97.74
2022-12-03T05:28:58.420Z,97.22
2022-12-03T05:29:58.376Z,97.43
2022-12-03T05:30:58.374Z,97.64
2022-12-03T05:31:58.283Z,97.01
2022-12-03T05:32:58.234Z,97.22
2022-12-03T05:33:58.202Z,96.49
2022-12-03T05:34:58.157Z,96.39
2022-12-03T05:35:58.100Z,96.59
2022-12-03T05:36:58.062Z,96.70
2022-12-03T05:37:58.010Z,96.59
2022-12-03T05:38:57.987Z,97.33
2022-12-03T05:39:57.917Z,96.59
2022-12-03T05:40:57.872Z,96.59
2022-12-03T05:41:57.831Z,97.12
2022-12-03T05:42:57.776Z,96.80
2022-12-03T05:43:57.738Z,97.22
2022-12-03T05:44:57.705Z,97.12
2022-12-03T05:45:57.675Z,97.01
2022-12-03T05:46:57.594Z,96.91
2022-12-03T05:47:57.563Z,96.80
2022-12-03T05:48:57.498Z,96.80
2022-12-03T05:49:57.454Z,97.64
2022-12-03T05:50:57.430Z,97.64
2022-12-03T05:51:58.822Z,96.97
2022-12-03T05:52:57.314Z,97.22
2022-12-03T05:53:57.274Z,96.59
2022-12-03T05:54:57.236Z,96.70
2022-12-03T05:55:57.195Z,96.91
2022-12-03T05:56:57.134Z,97.01
2022-12-03T05:57:57.097Z,96.28
2022-12-03T05:58:57.038Z,97.27
2022-12-03T05:59:57.015Z,97.01
2022-12-03T06:00:56.952Z,96.39
2022-12-03T06:01:56.912Z,96.66
2022-12-03T06:02:57.136Z,96.59
2022-12-03T06:03:56.916Z,96.18
2022-12-03T06:04:56.946Z,97.16
2022-12-03T06:05:56.738Z,96.70
2022-12-03T06:06:56.693Z,97.22
2022-12-03T06:07:56.690Z,96.80
2022-12-03T06:08:56.579Z,97.12
2022-12-03T06:09:56.543Z,96.59
2022-12-03T06:10:56.492Z,96.34
2022-12-03T06:11:56.451Z,96.08
2022-12-03T06:12:56.413Z,96.28
2022-12-03T06:13:56.355Z,96.80
2022-12-03T06:14:56.522Z,96.18
2022-12-03T06:15:56.355Z,95.97
2022-12-03T06:16:56.211Z,96.34
2022-12-03T06:17:56.188Z,96.91
2022-12-03T06:18:56.172Z,96.28
2022-12-03T06:19:56.076Z,96.14
2022-12-03T06:20:56.031Z,97.01
2022-12-03T06:21:55.988Z,97.12
2022-12-03T06:22:55.938Z,97.22
2022-12-03T06:23:55.909Z,96.55
2022-12-03T06:24:56.614Z,96.66
2022-12-03T06:25:55.819Z,96.49
2022-12-03T06:26:55.754Z,96.39
2022-12-03T06:27:55.711Z,96.59
2022-12-03T06:28:55.669Z,96.49
2022-12-03T06:29:55.630Z,96.85
2022-12-03T06:30:55.589Z,97.12
2022-12-03T06:31:55.530Z,96.70
2022-12-03T06:32:55.487Z,97.12
2022-12-03T06:33:55.494Z,97.33
2022-12-03T06:34:55.881Z,97.33
2022-12-03T06:35:55.347Z,96.75
2022-12-03T06:36:55.308Z,96.85
2022-12-03T06:37:58.015Z,97.58
2022-12-03T06:38:55.204Z,97.12
2022-12-03T06:39:58.017Z,97.43
2022-12-03T06:40:55.332Z,97.16
2022-12-03T06:41:55.548Z,97.06
2022-12-03T06:42:55.020Z,97.58
2022-12-03T06:43:54.991Z,97.27
2022-12-03T06:44:55.312Z,98.20
2022-12-03T06:45:54.892Z,97.68
2022-12-03T06:46:54.918Z,98.20
2022-12-03T06:47:54.845Z,98.31
2022-12-03T06:48:54.745Z,98.72
2022-12-03T06:49:54.721Z,98.10
2022-12-03T06:50:54.656Z,98.04
2022-12-03T06:51:54.614Z,98.14
2022-12-03T06:52:54.562Z,97.52
2022-12-03T06:53:54.519Z,97.72
2022-12-03T06:54:54.741Z,98.14
2022-12-03T06:55:54.442Z,98.35
2022-12-03T06:56:54.376Z,98.52
2022-12-03T06:57:54.351Z,98.14
2022-12-03T06:58:54.283Z,98.14
2022-12-03T06:59:54.464Z,97.72
2022-12-03T07:00:54.193Z,97.83
2022-12-03T07:01:54.199Z,98.14
2022-12-03T07:02:54.171Z,97.62
2022-12-03T07:03:54.054Z,97.10
2022-12-03T07:04:54.549Z,97.94
2022-12-03T07:05:53.971Z,98.87
2022-12-03T07:06:53.912Z,98.04
2022-12-03T07:07:53.977Z,98.35
2022-12-03T07:08:53.822Z,97.94
2022-12-03T07:09:53.781Z,98.35
2022-12-03T07:10:53.729Z,97.72
2022-12-03T07:11:53.688Z,97.83
2022-12-03T07:12:53.637Z,97.94
2022-12-03T07:13:53.615Z,98.04
2022-12-03T07:14:53.987Z,97.94
2022-12-03T07:15:54.537Z,97.94
2022-12-03T07:16:53.449Z,97.83
2022-12-03T07:17:53.404Z,98.19
2022-12-03T07:18:53.359Z,98.35
2022-12-03T07:19:53.330Z,98.04
2022-12-03T07:20:53.407Z,98.25
2022-12-03T07:21:53.222Z,97.62
2022-12-03T07:22:53.175Z,97.41
2022-12-03T07:23:53.138Z,97.00
2022-12-03T07:24:53.441Z,97.31
2022-12-03T07:25:53.034Z,97.20
2022-12-03T07:26:53.003Z,97.67
2022-12-03T07:27:52.943Z,97.14
2022-12-03T07:28:52.912Z,97.52
2022-12-03T07:29:52.854Z,97.72
2022-12-03T07:30:52.942Z,96.83
2022-12-03T07:31:52.824Z,97.00
2022-12-03T07:32:52.714Z,96.79
2022-12-03T07:33:52.675Z,97.62
2022-12-03T07:34:52.911Z,97.10
2022-12-03T07:35:52.578Z,97.94
2022-12-03T07:36:52.549Z,97.46
2022-12-03T07:37:52.484Z,97.56
2022-12-03T07:38:52.427Z,97.56
2022-12-03T07:39:52.405Z,97.41
2022-12-03T07:40:52.337Z,97.52
2022-12-03T07:41:52.300Z,97.41
2022-12-03T07:42:52.254Z,97.62
2022-12-03T07:43:52.200Z,98.41
2022-12-03T07:45:02.526Z,96.85
2022-12-03T07:45:52.106Z,97.47
2022-12-03T07:46:52.108Z,98.31
2022-12-03T07:47:52.024Z,97.47
2022-12-03T07:48:51.971Z,97.16
2022-12-03T07:49:51.923Z,96.22
2022-12-03T07:50:51.880Z,96.75
2022-12-03T07:51:51.827Z,96.43
2022-12-03T07:52:51.788Z,95.91
2022-12-03T07:53:51.734Z,96.91
2022-12-03T07:54:52.152Z,95.70
2022-12-03T07:55:51.644Z,96.53
2022-12-03T07:56:54.344Z,96.28
2022-12-03T07:57:51.549Z,95.70
2022-12-03T07:58:51.500Z,95.91
2022-12-03T07:59:51.461Z,95.76
2022-12-03T08:00:51.470Z,95.45
2022-12-03T08:01:51.474Z,94.98
2022-12-03T08:02:51.409Z,95.45
2022-12-03T08:03:51.271Z,95.14
2022-12-03T08:04:51.386Z,94.82
2022-12-03T08:05:51.182Z,94.51
2022-12-03T08:06:51.167Z,94.20
2022-12-03T08:07:51.145Z,94.47
2022-12-03T08:08:51.050Z,94.20
2022-12-03T08:09:50.994Z,94.72
2022-12-03T08:10:50.944Z,94.72
2022-12-03T08:11:50.900Z,94.66
2022-12-03T08:12:50.852Z,94.66
2022-12-03T08:13:50.811Z,94.98
2022-12-03T08:14:51.060Z,94.93
2022-12-03T08:15:50.715Z,95.39
2022-12-03T08:16:50.755Z,94.51
2022-12-03T08:17:50.622Z,95.50
2022-12-03T08:18:50.575Z,94.62
2022-12-03T08:19:50.537Z,94.98
2022-12-03T08:20:50.494Z,95.08
2022-12-03T08:21:50.447Z,95.29
2022-12-03T08:22:50.393Z,94.98
2022-12-03T08:23:50.350Z,95.08
2022-12-03T08:24:50.300Z,95.35
2022-12-03T08:25:50.275Z,94.24
2022-12-03T08:26:50.206Z,94.82
2022-12-03T08:27:50.162Z,94.62
2022-12-03T08:28:50.116Z,94.72
2022-12-03T08:29:50.073Z,94.06
2022-12-03T08:30:50.041Z,93.54
2022-12-03T08:31:50.099Z,93.43
2022-12-03T08:32:49.935Z,93.01
2022-12-03T08:33:49.892Z,92.80
2022-12-03T08:34:49.840Z,93.43
2022-12-03T08:35:49.810Z,93.39
2022-12-03T08:36:49.765Z,93.23
2022-12-03T08:37:49.712Z,93.29
2022-12-03T08:38:49.671Z,92.86
2022-12-03T08:39:49.618Z,92.45
2022-12-03T08:40:49.570Z,92.60
2022-12-03T08:41:49.528Z,92.49
2022-12-03T08:42:49.479Z,92.80
2022-12-03T08:43:49.436Z,92.29
2022-12-03T08:44:49.403Z,92.91
2022-12-03T08:45:49.431Z,92.80
2022-12-03T08:46:49.297Z,93.01
2022-12-03T08:47:49.252Z,93.01
2022-12-03T08:48:49.809Z,92.70
2022-12-03T08:49:49.164Z,93.12
2022-12-03T08:50:49.132Z,93.12
2022-12-03T08:51:49.089Z,93.49
2022-12-03T08:52:49.026Z,94.01
2022-12-03T08:53:48.982Z,92.55
2022-12-03T08:54:48.943Z,92.35
2022-12-03T08:55:48.892Z,92.45
2022-12-03T08:56:48.847Z,92.45
2022-12-03T08:57:48.806Z,92.76
2022-12-03T08:58:48.759Z,92.10
2022-12-03T08:59:48.711Z,91.52
2022-12-03T09:00:48.769Z,91.99
2022-12-03T09:01:48.630Z,91.99
2022-12-03T09:02:48.571Z,91.27
2022-12-03T09:03:48.579Z,90.85
2022-12-03T09:04:48.481Z,91.16
2022-12-03T09:05:48.441Z,91.12
2022-12-03T09:06:48.391Z,90.20
2022-12-03T09:07:48.441Z,90.17
2022-12-03T09:08:48.306Z,89.36
2022-12-03T09:09:48.265Z,88.07
2022-12-03T09:10:48.217Z,85.89
2022-12-03T09:11:48.168Z,85.89
2022-12-03T09:12:48.125Z,86.89
2022-12-03T09:13:48.088Z,86.07
2022-12-03T09:14:48.048Z,84.58
2022-12-03T09:15:47.994Z,84.47
2022-12-03T09:16:48.082Z,84.64
2022-12-03T09:17:47.908Z,82.57
2022-12-03T09:18:47.865Z,83.40
2022-12-03T09:19:47.819Z,83.64
2022-12-03T09:20:47.793Z,84.41
2022-12-03T09:21:47.733Z,85.34
2022-12-03T09:22:47.698Z,85.75
2022-12-03T09:23:47.646Z,84.48
2022-12-03T09:24:47.604Z,85.94
2022-12-03T09:25:47.561Z,86.49
2022-12-03T09:26:47.519Z,86.91
2022-12-03T09:27:47.483Z,87.22
2022-12-03T09:28:47.435Z,86.39
2022-12-03T09:29:47.389Z,85.52
2022-12-03T09:30:47.349Z,86.70
2022-12-03T09:31:47.394Z,87.43
2022-12-03T09:32:47.277Z,87.78
2022-12-03T09:33:47.220Z,88.23
2022-12-03T09:34:47.199Z,88.40
2022-12-03T09:35:47.131Z,88.02
2022-12-03T09:36:47.097Z,87.76
2022-12-03T09:37:47.042Z,87.71
2022-12-03T09:38:48.237Z,88.02
2022-12-03T09:39:46.958Z,88.38
2022-12-03T09:40:46.927Z,89.13
2022-12-03T09:41:46.870Z,88.96
2022-12-03T09:42:46.839Z,89.06
2022-12-03T09:44:03.904Z,88.65
2022-12-03T09:44:46.758Z,89.37
2022-12-03T09:45:46.899Z,87.51
2022-12-03T09:46:46.673Z,88.69
2022-12-03T09:47:46.615Z,89.17
2022-12-03T09:48:46.571Z,89.69
2022-12-03T09:49:46.523Z,88.96
2022-12-03T09:50:46.479Z,89.11
2022-12-03T09:51:46.436Z,89.00
2022-12-03T09:52:46.407Z,89.83
2022-12-03T09:53:46.350Z,89.36
2022-12-03T09:54:47.645Z,89.77
2022-12-03T09:55:46.257Z,90.04
2022-12-03T09:56:46.225Z,89.73
2022-12-03T09:57:46.170Z,89.36
2022-12-03T09:58:46.130Z,89.25
2022-12-03T09:59:46.089Z,90.19
2022-12-03T10:00:46.043Z,90.39
2022-12-03T10:01:46.112Z,89.77
2022-12-03T10:02:45.968Z,90.08
2022-12-03T10:03:45.907Z,90.50
2022-12-03T10:04:45.899Z,90.60
2022-12-03T10:05:48.167Z,91.43
2022-12-03T10:06:46.463Z,91.02
2022-12-03T10:07:45.781Z,89.87
2022-12-03T10:08:45.700Z,90.66
2022-12-03T10:09:45.645Z,90.60
2022-12-03T10:10:45.598Z,90.66
2022-12-03T10:11:45.573Z,91.22
2022-12-03T10:12:45.509Z,90.50
2022-12-03T10:13:45.469Z,91.43
2022-12-03T10:14:45.444Z,91.33
2022-12-03T10:15:45.373Z,90.66
2022-12-03T10:16:45.377Z,91.33
2022-12-03T10:17:45.286Z,91.74
2022-12-03T10:18:45.256Z,90.81
2022-12-03T10:19:45.195Z,90.77
2022-12-03T10:20:45.165Z,90.60
2022-12-03T10:21:45.107Z,90.60
2022-12-03T10:22:45.068Z,90.70
2022-12-03T10:23:45.887Z,90.66
2022-12-03T10:24:45.172Z,90.60
2022-12-03T10:25:44.929Z,90.81
2022-12-03T10:26:44.899Z,91.22
2022-12-03T10:27:44.839Z,92.10
2022-12-03T10:28:44.796Z,91.53
2022-12-03T10:29:44.750Z,91.49
2022-12-03T10:30:44.739Z,90.91
2022-12-03T10:31:44.659Z,90.81
2022-12-03T10:32:44.632Z,90.77
2022-12-03T10:33:44.573Z,90.45
2022-12-03T10:34:44.530Z,90.77
2022-12-03T10:35:44.483Z,89.52
2022-12-03T10:36:44.444Z,89.42
2022-12-03T10:37:44.405Z,90.04
2022-12-03T10:38:44.349Z,90.14
2022-12-03T10:39:44.304Z,89.83
2022-12-03T10:40:44.260Z,90.25
2022-12-03T10:41:44.216Z,89.37
2022-12-03T10:42:44.172Z,89.17
2022-12-03T10:43:44.135Z,89.37
2022-12-03T10:44:44.083Z,88.96
2022-12-03T10:45:44.158Z,88.44
2022-12-03T10:46:44.150Z,88.34
2022-12-03T10:47:44.032Z,88.44
2022-12-03T10:48:43.987Z,88.82
2022-12-03T10:49:43.872Z,88.09
2022-12-03T10:50:43.817Z,87.74
2022-12-03T10:51:43.779Z,88.26
2022-12-03T10:52:43.732Z,88.05
2022-12-03T10:53:43.697Z,87.99
2022-12-03T10:54:43.644Z,88.05
2022-12-03T10:55:43.595Z,87.43
2022-12-03T10:56:43.556Z,86.74
2022-12-03T10:57:45.901Z,86.91
2022-12-03T10:58:43.467Z,87.84
2022-12-03T10:59:43.434Z,88.11
2022-12-03T11:00:43.398Z,86.91
2022-12-03T11:01:43.377Z,86.87
2022-12-03T11:02:43.289Z,87.18
2022-12-03T11:03:43.291Z,87.20
2022-12-03T11:04:43.205Z,84.61
2022-12-03T11:05:43.171Z,85.09
2022-12-03T11:06:43.119Z,85.24
2022-12-03T11:07:43.092Z,85.65
2022-12-03T11:08:43.031Z,85.13
2022-12-03T11:09:42.985Z,84.41
2022-12-03T11:10:42.942Z,84.51
2022-12-03T11:11:42.913Z,84.92
2022-12-03T11:12:42.866Z,85.24
2022-12-03T11:13:42.821Z,85.06
2022-12-03T11:14:42.774Z,84.86
2022-12-03T11:15:42.753Z,85.52
2022-12-03T11:16:42.684Z,85.77
2022-12-03T11:17:42.656Z,86.49
2022-12-03T11:18:42.609Z,86.64
2022-12-03T11:19:42.556Z,87.47
2022-12-03T11:20:42.515Z,87.16
2022-12-03T11:21:42.472Z,87.78
2022-12-03T11:22:42.426Z,88.23
2022-12-03T11:23:42.385Z,88.71
2022-12-03T11:24:42.358Z,88.71
2022-12-03T11:25:42.296Z,88.30
2022-12-03T11:26:42.256Z,88.71
2022-12-03T11:27:42.208Z,87.57
2022-12-03T11:28:42.168Z,88.51
2022-12-03T11:29:42.125Z,87.84
2022-12-03T11:30:42.138Z,88.26
2022-12-03T11:31:42.164Z,87.95
2022-12-03T11:32:41.991Z,88.57
2022-12-03T11:33:41.945Z,87.84
2022-12-03T11:34:41.909Z,87.99
2022-12-03T11:35:41.859Z,87.88
2022-12-03T11:37:00.687Z,89.54
2022-12-03T11:37:41.772Z,88.34
2022-12-03T11:38:45.009Z,88.75
2022-12-03T11:39:41.683Z,89.37
2022-12-03T11:40:41.659Z,89.17
2022-12-03T11:41:41.598Z,88.85
2022-12-03T11:42:41.569Z,89.27
2022-12-03T11:43:41.510Z,89.69
2022-12-03T11:44:41.468Z,89.37
2022-12-03T11:45:41.425Z,88.85
2022-12-03T11:46:41.453Z,89.06
2022-12-03T11:47:41.331Z,88.96
2022-12-03T11:48:41.291Z,89.27
2022-12-03T11:49:41.245Z,89.17
2022-12-03T11:50:41.206Z,89.17
2022-12-03T11:51:41.156Z,88.75
2022-12-03T11:52:41.128Z,88.69
2022-12-03T11:53:41.097Z,89.52
2022-12-03T11:54:41.026Z,88.79
2022-12-03T11:55:40.976Z,90.19
2022-12-03T11:56:40.938Z,90.66
2022-12-03T11:57:40.888Z,89.94
2022-12-03T11:58:40.860Z,90.41
2022-12-03T11:59:40.800Z,89.52
2022-12-03T12:00:40.759Z,89.48
2022-12-03T12:01:40.711Z,89.52
2022-12-03T12:02:40.721Z,88.59
2022-12-03T12:03:40.723Z,89.42
2022-12-03T12:04:40.641Z,89.73
2022-12-03T12:05:40.533Z,90.10
2022-12-03T12:06:40.489Z,88.79
2022-12-03T12:07:40.574Z,89.69
2022-12-03T12:08:40.403Z,90.14
2022-12-03T12:09:40.371Z,90.04
2022-12-03T12:10:40.313Z,89.83
2022-12-03T12:11:40.268Z,89.94
2022-12-03T12:12:40.226Z,90.45
2022-12-03T12:13:40.176Z,90.83
2022-12-03T12:14:40.135Z,90.52
2022-12-03T12:15:40.112Z,89.37
2022-12-03T12:16:40.154Z,89.06
2022-12-03T12:17:40.001Z,89.27
2022-12-03T12:18:39.977Z,89.11
2022-12-03T12:19:39.949Z,89.52
2022-12-03T12:20:39.871Z,89.52
2022-12-03T12:21:39.831Z,89.73
2022-12-03T12:22:39.778Z,89.00
2022-12-03T12:23:39.734Z,89.73
2022-12-03T12:24:39.695Z,89.83
2022-12-03T12:25:39.642Z,89.62
2022-12-03T12:26:39.601Z,89.21
2022-12-03T12:27:39.567Z,89.37
2022-12-03T12:28:39.509Z,88.90
2022-12-03T12:29:39.462Z,89.42
2022-12-03T12:30:39.420Z,89.42
2022-12-03T12:31:39.433Z,89.89
2022-12-03T12:32:39.347Z,89.52
2022-12-03T12:33:39.286Z,89.58
2022-12-03T12:34:39.257Z,89.69
2022-12-03T12:35:39.209Z,89.58
2022-12-03T12:36:39.155Z,89.37
2022-12-03T12:37:39.107Z,89.75
2022-12-03T12:38:39.073Z,89.52
2022-12-03T12:39:39.016Z,89.48
2022-12-03T12:40:38.976Z,89.37
2022-12-03T12:41:38.928Z,89.69
2022-12-03T12:42:38.880Z,90.00
2022-12-03T12:43:38.843Z,90.00
2022-12-03T12:44:38.810Z,89.73
2022-12-03T12:45:38.751Z,89.11
2022-12-03T12:46:47.760Z,89.27
2022-12-03T12:47:38.720Z,89.62
2022-12-03T12:48:38.617Z,90.10
2022-12-03T12:49:38.570Z,89.79
2022-12-03T12:50:38.551Z,89.48
2022-12-03T12:51:38.482Z,89.89